Terminal Aerodrome Forecast
Issued by NWS

Home | Current Version | Previous Version | Graphics & Text | Print | Product List | Glossary On
Versions: 1 2 3 4 5 6 7 8 9 10 11 12
600
FTUS43 KGRB 151730
TAFAUW
TAF
KAUW 151730Z 1518/1618 33011G18KT P6SM SCT028 BKN035
      TEMPO 1518/1519 BKN028
     FM151900 31011G17KT P6SM BKN040
     FM152200 28004KT P6SM SCT120=

USA.gov is the U.S. government's official web portal to all federal, state and local government web resources and services.